createdAt,value
2018-04-19T00:00:54.672Z,8.80
2018-04-19T00:03:23.494Z,8.69
2018-04-19T00:05:51.197Z,8.98
2018-04-19T00:08:18.848Z,8.32
2018-04-19T00:10:46.449Z,8.56
2018-04-19T00:13:14.034Z,8.53
2018-04-19T00:15:41.668Z,8.55
2018-04-19T00:18:09.954Z,8.47
2018-04-19T00:20:37.624Z,8.48
2018-04-19T00:23:05.302Z,8.59
2018-04-19T00:25:33.076Z,8.46
2018-04-19T00:28:00.824Z,8.35
2018-04-19T00:30:28.357Z,8.43
2018-04-19T00:32:56.487Z,8.34
2018-04-19T00:35:24.270Z,8.49
2018-04-19T00:37:51.929Z,8.52
2018-04-19T00:40:19.509Z,7.99
2018-04-19T00:42:47.255Z,8.14
2018-04-19T00:45:14.808Z,7.97
2018-04-19T00:47:42.413Z,7.91
2018-04-19T00:50:10.083Z,8.07
2018-04-19T00:52:50.088Z,8.50
2018-04-19T00:55:17.604Z,7.91
2018-04-19T00:57:45.194Z,8.16
2018-04-19T01:00:12.958Z,8.02
2018-04-19T01:02:41.350Z,8.00
2018-04-19T01:05:09.566Z,8.18
2018-04-19T01:07:37.233Z,7.96
2018-04-19T01:10:04.848Z,7.97
2018-04-19T01:12:32.489Z,7.99
2018-04-19T01:15:00.087Z,7.77
2018-04-19T01:17:27.780Z,7.72
2018-04-19T01:19:55.306Z,7.43
2018-04-19T01:22:23.013Z,7.89
2018-04-19T01:24:50.613Z,7.74
2018-04-19T01:27:18.433Z,7.43
2018-04-19T01:29:46.051Z,7.47
2018-04-19T01:32:13.864Z,7.43
2018-04-19T01:34:41.819Z,7.47
2018-04-19T01:37:09.728Z,7.43
2018-04-19T01:39:37.293Z,7.05
2018-04-19T01:42:05.265Z,6.99
2018-04-19T01:44:32.803Z,7.01
2018-04-19T01:47:00.430Z,7.07
2018-04-19T01:49:28.168Z,6.89
2018-04-19T01:51:55.696Z,6.76
2018-04-19T01:54:23.495Z,6.78
2018-04-19T01:56:51.049Z,7.02
2018-04-19T01:59:18.749Z,6.74
2018-04-19T02:01:46.500Z,6.60
2018-04-19T02:04:14.268Z,6.76
2018-04-19T02:06:42.204Z,6.71
2018-04-19T02:09:10.022Z,6.86
2018-04-19T02:11:37.775Z,6.82
2018-04-19T02:14:05.334Z,7.00
2018-04-19T02:16:33.103Z,7.17
2018-04-19T02:19:00.770Z,6.91
2018-04-19T02:21:28.348Z,7.00
2018-04-19T02:23:56.036Z,6.97
2018-04-19T02:26:24.004Z,6.85
2018-04-19T02:28:51.616Z,6.63
2018-04-19T02:31:19.259Z,6.73
2018-04-19T02:33:46.873Z,6.62
2018-04-19T02:36:14.589Z,6.47
2018-04-19T02:38:43.196Z,6.53
2018-04-19T02:41:10.896Z,6.64
2018-04-19T02:43:38.674Z,6.54
2018-04-19T02:46:06.595Z,6.59
2018-04-19T02:48:34.289Z,6.75
2018-04-19T02:51:02.110Z,6.70
2018-04-19T02:53:29.900Z,6.65
2018-04-19T02:55:57.404Z,6.43
2018-04-19T02:58:25.239Z,6.34
2018-04-19T03:00:52.905Z,6.25
2018-04-19T03:03:20.871Z,6.22
2018-04-19T03:05:48.400Z,6.18
2018-04-19T03:08:16.058Z,6.06
2018-04-19T03:10:43.651Z,6.12
2018-04-19T03:13:11.359Z,6.02
2018-04-19T03:15:39.183Z,6.00
2018-04-19T03:18:06.806Z,5.95
2018-04-19T03:20:34.610Z,6.12
2018-04-19T03:23:02.223Z,5.94
2018-04-19T03:25:29.815Z,5.97
2018-04-19T03:27:58.551Z,6.04
2018-04-19T03:30:26.079Z,6.00
2018-04-19T03:32:53.755Z,5.92
2018-04-19T03:35:21.355Z,6.01
2018-04-19T03:37:49.293Z,5.97
2018-04-19T03:40:17.096Z,5.99
2018-04-19T03:42:44.623Z,6.23
2018-04-19T03:45:12.324Z,6.25
2018-04-19T03:47:39.860Z,6.55
2018-04-19T03:50:07.613Z,6.42
2018-04-19T03:52:36.073Z,6.39
2018-04-19T03:55:03.620Z,6.49
2018-04-19T03:57:31.414Z,6.43
2018-04-19T04:00:00.013Z,6.33
2018-04-19T04:02:27.601Z,6.04
2018-04-19T04:04:55.314Z,6.13
2018-04-19T04:07:23.095Z,6.15
2018-04-19T04:09:50.828Z,6.17
2018-04-19T04:12:18.635Z,5.98
2018-04-19T04:14:46.433Z,5.66
2018-04-19T04:17:25.886Z,5.68
2018-04-19T04:20:05.524Z,5.71
2018-04-19T04:22:45.264Z,5.95
2018-04-19T04:25:12.826Z,5.89
2018-04-19T04:27:40.577Z,6.12
2018-04-19T04:30:08.115Z,5.94
2018-04-19T04:32:36.503Z,6.09
2018-04-19T04:35:04.155Z,5.91
2018-04-19T04:37:31.915Z,6.09
2018-04-19T04:40:00.036Z,5.84
2018-04-19T04:42:27.729Z,5.98
2018-04-19T04:44:55.461Z,6.10
2018-04-19T04:47:23.084Z,6.05
2018-04-19T04:49:50.653Z,6.17
2018-04-19T04:52:18.271Z,5.92
2018-04-19T04:54:46.570Z,6.08
2018-04-19T04:57:14.191Z,6.28
2018-04-19T04:59:41.989Z,6.34
2018-04-19T05:02:09.559Z,6.46
2018-04-19T05:04:37.704Z,6.52
2018-04-19T05:07:05.390Z,7.11
2018-04-19T05:09:33.102Z,6.92
2018-04-19T05:12:00.729Z,6.65
2018-04-19T05:14:28.311Z,6.56
2018-04-19T05:16:55.829Z,6.39
2018-04-19T05:19:23.386Z,6.54
2018-04-19T05:21:51.399Z,6.84
2018-04-19T05:24:19.232Z,6.84
2018-04-19T05:26:46.907Z,6.83
2018-04-19T05:29:14.582Z,7.50
2018-04-19T05:31:42.385Z,7.24
2018-04-19T05:34:09.920Z,7.39
2018-04-19T05:36:37.612Z,7.33
2018-04-19T05:39:05.227Z,7.77
2018-04-19T05:41:32.766Z,7.85
2018-04-19T05:44:00.339Z,8.18
2018-04-19T05:46:28.030Z,8.26
2018-04-19T05:48:55.986Z,8.49
2018-04-19T05:51:23.687Z,8.50
2018-04-19T05:53:51.265Z,8.70
2018-04-19T05:56:19.075Z,8.76
2018-04-19T05:58:46.647Z,9.34
2018-04-19T06:01:14.708Z,9.17
2018-04-19T06:03:42.457Z,9.20
2018-04-19T06:06:10.044Z,9.90
2018-04-19T06:08:37.973Z,10.20
2018-04-19T06:11:05.660Z,10.26
2018-04-19T06:13:33.196Z,10.57
2018-04-19T06:16:00.919Z,11.21
2018-04-19T06:18:28.755Z,11.00
2018-04-19T06:20:56.620Z,11.00
2018-04-19T06:23:24.194Z,11.11
2018-04-19T06:25:52.430Z,11.68
2018-04-19T06:28:20.060Z,12.11
2018-04-19T06:30:48.216Z,12.82
2018-04-19T06:33:15.874Z,13.20
2018-04-19T06:35:44.401Z,13.52
2018-04-19T06:38:12.040Z,14.06
2018-04-19T06:40:39.605Z,14.23
2018-04-19T06:43:08.002Z,14.46
2018-04-19T06:45:35.567Z,15.13
2018-04-19T06:48:03.126Z,15.44
2018-04-19T06:50:30.767Z,15.84
2018-04-19T06:52:58.307Z,16.25
2018-04-19T06:55:26.080Z,16.39
2018-04-19T06:57:53.736Z,16.95
2018-04-19T07:00:21.396Z,17.18
2018-04-19T07:02:49.117Z,17.68
2018-04-19T07:05:17.411Z,18.14
2018-04-19T07:07:45.100Z,18.22
2018-04-19T07:10:12.851Z,18.76
2018-04-19T07:12:40.383Z,18.96
2018-04-19T07:15:08.375Z,19.48
2018-04-19T07:17:35.918Z,19.36
2018-04-19T07:20:03.551Z,19.99
2018-04-19T07:22:31.171Z,20.92
2018-04-19T07:24:58.721Z,21.46
2018-04-19T07:27:26.558Z,21.62
2018-04-19T07:29:54.165Z,21.74
2018-04-19T07:32:21.839Z,22.79
2018-04-19T07:34:49.460Z,23.04
2018-04-19T07:37:17.002Z,22.74
2018-04-19T07:39:44.565Z,22.57
2018-04-19T07:42:12.147Z,22.53
2018-04-19T07:44:40.502Z,22.16
2018-04-19T07:47:08.157Z,23.24
2018-04-19T07:49:35.857Z,23.74
2018-04-19T07:52:04.555Z,23.03
2018-04-19T07:54:32.340Z,23.84
2018-04-19T07:57:00.080Z,23.73
2018-04-19T07:59:27.909Z,24.47
2018-04-19T08:01:55.490Z,24.69
2018-04-19T08:04:23.097Z,24.47
2018-04-19T08:06:51.615Z,24.57
2018-04-19T08:09:19.338Z,24.05
2018-04-19T08:11:47.051Z,24.38
2018-04-19T08:14:14.802Z,24.41
2018-04-19T08:16:42.415Z,25.16
2018-04-19T08:19:10.165Z,25.35
2018-04-19T08:21:38.243Z,25.50
2018-04-19T08:24:05.812Z,24.85
2018-04-19T08:26:33.462Z,25.85
2018-04-19T08:29:01.156Z,24.99
2018-04-19T08:31:28.788Z,24.97
2018-04-19T08:33:56.541Z,26.02
2018-04-19T08:36:24.187Z,26.65
2018-04-19T08:38:51.947Z,26.73
2018-04-19T08:41:19.634Z,26.09
2018-04-19T08:43:47.180Z,26.02
2018-04-19T08:46:14.760Z,25.99
2018-04-19T08:48:42.292Z,27.04
2018-04-19T08:51:09.867Z,27.48
2018-04-19T08:53:37.606Z,26.54
2018-04-19T08:56:05.237Z,26.86
2018-04-19T08:58:32.786Z,27.27
2018-04-19T09:01:01.582Z,27.60
2018-04-19T09:03:29.307Z,26.42
2018-04-19T09:05:56.966Z,26.01
2018-04-19T09:08:24.562Z,27.07
2018-04-19T09:10:52.176Z,27.13
2018-04-19T09:13:19.826Z,28.29
2018-04-19T09:15:47.544Z,27.98
2018-04-19T09:18:15.156Z,27.81
2018-04-19T09:20:42.786Z,28.38
2018-04-19T09:23:10.394Z,28.92
2018-04-19T09:25:38.083Z,29.62
2018-04-19T09:28:05.910Z,30.69
2018-04-19T09:30:33.626Z,30.03
2018-04-19T09:33:01.455Z,29.85
2018-04-19T09:35:29.003Z,29.57
2018-04-19T09:37:56.897Z,31.84
2018-04-19T09:40:24.497Z,32.06
2018-04-19T09:42:52.158Z,32.03
2018-04-19T09:45:20.022Z,31.55
2018-04-19T09:47:47.637Z,31.24
2018-04-19T09:50:15.314Z,31.98
2018-04-19T09:52:42.946Z,31.35
2018-04-19T09:55:10.599Z,32.51
2018-04-19T09:57:38.408Z,33.77
2018-04-19T10:00:06.030Z,34.69
2018-04-19T10:02:35.572Z,35.14
2018-04-19T10:05:03.268Z,31.88
2018-04-19T10:07:30.787Z,33.77
2018-04-19T10:09:58.654Z,34.99
2018-04-19T10:12:26.370Z,34.62
2018-04-19T10:14:54.107Z,33.98
2018-04-19T10:17:21.681Z,33.93
2018-04-19T10:19:49.281Z,33.52
2018-04-19T10:22:17.408Z,33.51
2018-04-19T10:24:45.138Z,33.45
2018-04-19T10:27:12.871Z,31.45
2018-04-19T10:29:40.792Z,33.57
2018-04-19T10:32:08.327Z,32.82
2018-04-19T10:34:35.967Z,35.63
2018-04-19T10:37:03.584Z,34.29
2018-04-19T10:39:31.222Z,33.03
2018-04-19T10:41:59.008Z,32.71
2018-04-19T10:44:26.742Z,32.42
2018-04-19T10:46:54.483Z,31.68
2018-04-19T10:49:22.077Z,32.15
2018-04-19T10:51:49.657Z,31.89
2018-04-19T10:54:17.518Z,30.53
2018-04-19T10:56:45.239Z,31.51
2018-04-19T10:59:12.833Z,31.82
2018-04-19T11:01:40.371Z,30.81
2018-04-19T11:04:07.967Z,31.20
2018-04-19T11:06:35.747Z,32.11
2018-04-19T11:09:03.447Z,32.55
2018-04-19T11:11:31.210Z,33.39
2018-04-19T11:13:58.813Z,33.74
2018-04-19T11:16:26.433Z,33.32
2018-04-19T11:18:54.075Z,33.23
2018-04-19T11:21:21.819Z,32.97
2018-04-19T11:23:50.432Z,32.27
2018-04-19T11:26:18.097Z,32.98
2018-04-19T11:28:45.851Z,33.64
2018-04-19T11:31:13.612Z,33.08
2018-04-19T11:33:41.172Z,32.37
2018-04-19T11:36:08.965Z,31.94
2018-04-19T11:38:36.713Z,32.65
2018-04-19T11:41:04.303Z,32.75
2018-04-19T11:43:32.585Z,32.16
2018-04-19T11:46:00.127Z,31.57
2018-04-19T11:48:27.761Z,31.95
2018-04-19T11:50:55.337Z,32.76
2018-04-19T11:53:22.937Z,34.73
2018-04-19T11:55:50.787Z,35.61
2018-04-19T11:58:18.467Z,33.78
2018-04-19T12:00:46.333Z,32.62
2018-04-19T12:03:13.854Z,31.99
2018-04-19T12:05:41.940Z,31.84
2018-04-19T12:08:09.462Z,31.53
2018-04-19T12:10:37.152Z,32.62
2018-04-19T12:13:04.708Z,32.29
2018-04-19T12:15:32.274Z,32.90
2018-04-19T12:18:00.213Z,33.70
2018-04-19T12:20:28.575Z,32.91
2018-04-19T12:22:56.217Z,33.65
2018-04-19T12:25:23.995Z,32.31
2018-04-19T12:27:53.264Z,32.10
2018-04-19T12:30:20.832Z,33.65
2018-04-19T12:32:48.533Z,34.29
2018-04-19T12:35:16.090Z,33.77
2018-04-19T12:37:44.114Z,33.85
2018-04-19T12:40:11.620Z,34.52
2018-04-19T12:42:39.408Z,33.48
2018-04-19T12:45:07.114Z,32.95
2018-04-19T12:47:35.537Z,33.85
2018-04-19T12:50:03.417Z,34.69
2018-04-19T12:52:31.124Z,33.41
2018-04-19T12:54:58.728Z,32.12
2018-04-19T12:57:26.855Z,33.76
2018-04-19T12:59:54.562Z,32.05
2018-04-19T13:02:22.093Z,33.16
2018-04-19T13:04:49.649Z,32.67
2018-04-19T13:07:17.222Z,32.56
2018-04-19T13:09:45.024Z,32.73
2018-04-19T13:12:12.557Z,32.36
2018-04-19T13:14:40.184Z,33.08
2018-04-19T13:17:07.717Z,33.63
2018-04-19T13:19:35.260Z,33.95
2018-04-19T13:22:02.950Z,35.06
2018-04-19T13:24:31.165Z,33.03
2018-04-19T13:26:58.869Z,32.65
2018-04-19T13:29:26.622Z,32.83
2018-04-19T13:31:54.258Z,32.83
2018-04-19T13:34:22.189Z,33.20
2018-04-19T13:36:50.003Z,32.00
2018-04-19T13:39:17.557Z,32.98
2018-04-19T13:41:45.277Z,33.09
2018-04-19T13:44:12.842Z,31.50
2018-04-19T13:46:40.595Z,31.92
2018-04-19T13:49:08.110Z,31.93
2018-04-19T13:51:35.635Z,30.75
2018-04-19T13:54:03.405Z,31.51
2018-04-19T13:56:31.107Z,30.88
2018-04-19T13:58:58.766Z,30.88
2018-04-19T14:01:26.565Z,31.27
2018-04-19T14:03:54.273Z,31.82
2018-04-19T14:06:21.805Z,29.72
2018-04-19T14:08:49.404Z,28.43
2018-04-19T14:11:17.080Z,28.63
2018-04-19T14:13:44.733Z,28.15
2018-04-19T14:16:12.923Z,27.94
2018-04-19T14:18:40.701Z,27.36
2018-04-19T14:21:08.425Z,27.53
2018-04-19T14:23:36.163Z,27.70
2018-04-19T14:26:03.933Z,27.63
2018-04-19T14:28:31.799Z,27.57
2018-04-19T14:30:59.521Z,27.22
2018-04-19T14:33:27.091Z,27.18
2018-04-19T14:35:54.749Z,27.17
2018-04-19T14:38:23.131Z,27.22
2018-04-19T14:40:50.685Z,27.33
2018-04-19T14:43:18.450Z,26.73
2018-04-19T14:45:46.189Z,26.78
2018-04-19T14:48:13.858Z,27.02
2018-04-19T14:50:41.469Z,26.85
2018-04-19T14:53:09.026Z,26.46
2018-04-19T14:55:36.656Z,26.49
2018-04-19T14:58:04.425Z,26.79
2018-04-19T15:00:32.266Z,26.63
2018-04-19T15:02:59.832Z,26.53
2018-04-19T15:05:27.598Z,26.45
2018-04-19T15:07:55.290Z,26.44
2018-04-19T15:10:23.228Z,26.47
2018-04-19T15:12:50.790Z,26.41
2018-04-19T15:15:18.434Z,26.40
2018-04-19T15:17:46.145Z,26.42
2018-04-19T15:20:13.786Z,26.43
2018-04-19T15:22:41.327Z,26.31
2018-04-19T15:25:08.959Z,26.33
2018-04-19T15:27:36.519Z,26.29
2018-04-19T15:30:04.124Z,26.21
2018-04-19T15:32:31.850Z,26.26
2018-04-19T15:34:59.578Z,26.26
2018-04-19T15:37:27.113Z,26.28
2018-04-19T15:39:54.643Z,26.09
2018-04-19T15:42:22.756Z,25.99
2018-04-19T15:44:50.676Z,25.97
2018-04-19T15:47:18.389Z,25.93
2018-04-19T15:49:45.950Z,25.81
2018-04-19T15:52:13.906Z,25.88
2018-04-19T15:54:41.462Z,25.81
2018-04-19T15:57:09.155Z,25.64
2018-04-19T15:59:36.946Z,25.74
2018-04-19T16:02:04.602Z,25.64
2018-04-19T16:04:32.221Z,25.73
2018-04-19T16:06:59.855Z,25.71
2018-04-19T16:09:28.408Z,25.80
2018-04-19T16:11:56.166Z,25.60
2018-04-19T16:14:23.732Z,25.45
2018-04-19T16:16:51.344Z,25.47
2018-04-19T16:19:19.687Z,25.43
2018-04-19T16:21:47.825Z,25.54
2018-04-19T16:24:16.045Z,25.39
2018-04-19T16:26:43.756Z,25.45
2018-04-19T16:29:11.499Z,25.41
2018-04-19T16:31:39.249Z,25.29
2018-04-19T16:34:06.863Z,25.21
2018-04-19T16:36:34.429Z,25.29
2018-04-19T16:39:01.978Z,25.05
2018-04-19T16:41:29.523Z,25.09
2018-04-19T16:43:57.401Z,24.98
2018-04-19T16:46:25.277Z,24.88
2018-04-19T16:48:53.006Z,25.01
2018-04-19T16:51:20.571Z,24.97
2018-04-19T16:53:48.327Z,24.80
2018-04-19T16:56:16.065Z,24.69
2018-04-19T16:58:43.637Z,24.66
2018-04-19T17:01:11.254Z,24.53
2018-04-19T17:03:39.646Z,24.44
2018-04-19T17:06:07.218Z,24.36
2018-04-19T17:08:34.983Z,24.36
2018-04-19T17:11:02.661Z,24.41
2018-04-19T17:13:30.341Z,24.27
2018-04-19T17:15:58.053Z,24.02
2018-04-19T17:18:25.784Z,24.01
2018-04-19T17:20:53.373Z,23.99
2018-04-19T17:23:20.966Z,23.93
2018-04-19T17:25:48.522Z,23.76
2018-04-19T17:28:16.037Z,23.72
2018-04-19T17:30:43.707Z,23.37
2018-04-19T17:33:11.350Z,23.38
2018-04-19T17:35:38.880Z,23.20
2018-04-19T17:38:06.426Z,23.12
2018-04-19T17:40:34.125Z,23.10
2018-04-19T17:43:01.734Z,22.64
2018-04-19T17:45:29.597Z,22.34
2018-04-19T17:47:57.278Z,22.19
2018-04-19T17:50:25.150Z,21.98
2018-04-19T17:52:52.728Z,21.73
2018-04-19T17:55:20.294Z,21.58
2018-04-19T17:57:47.913Z,21.38
2018-04-19T18:00:15.560Z,21.07
2018-04-19T18:02:43.307Z,21.04
2018-04-19T18:05:10.867Z,21.06
2018-04-19T18:07:39.108Z,20.86
2018-04-19T18:10:06.707Z,20.07
2018-04-19T18:12:34.693Z,19.66
2018-04-19T18:15:02.477Z,19.50
2018-04-19T18:17:30.152Z,19.14
2018-04-19T18:19:57.878Z,19.10
2018-04-19T18:22:25.409Z,19.03
2018-04-19T18:24:53.015Z,18.74
2018-04-19T18:27:21.151Z,18.92
2018-04-19T18:29:48.833Z,18.64
2018-04-19T18:32:16.839Z,18.57
2018-04-19T18:34:44.643Z,18.39
2018-04-19T18:37:12.360Z,18.39
2018-04-19T18:39:40.009Z,18.22
2018-04-19T18:42:07.634Z,18.25
2018-04-19T18:44:35.188Z,18.20
2018-04-19T18:47:02.823Z,18.27
2018-04-19T18:49:30.430Z,18.01
2018-04-19T18:51:57.965Z,17.58
2018-04-19T18:54:25.574Z,17.07
2018-04-19T18:56:53.182Z,17.00
2018-04-19T18:59:20.760Z,16.88
2018-04-19T19:01:48.332Z,16.22
2018-04-19T19:04:16.102Z,16.40
2018-04-19T19:06:44.450Z,16.18
2018-04-19T19:09:12.008Z,15.94
2018-04-19T19:11:39.774Z,15.76
2018-04-19T19:14:07.360Z,16.09
2018-04-19T19:16:35.205Z,16.05
2018-04-19T19:19:15.058Z,16.43
2018-04-19T19:21:42.564Z,16.70
2018-04-19T19:24:11.281Z,16.86
2018-04-19T19:26:38.807Z,16.08
2018-04-19T19:29:06.356Z,15.81
2018-04-19T19:31:33.908Z,15.52
2018-04-19T19:34:01.497Z,15.49
2018-04-19T19:36:29.125Z,15.26
2018-04-19T19:38:56.815Z,15.22
2018-04-19T19:41:24.546Z,15.30
2018-04-19T19:43:52.080Z,15.00
2018-04-19T19:46:19.995Z,14.90
2018-04-19T19:48:47.628Z,14.69
2018-04-19T19:51:15.180Z,14.45
2018-04-19T19:53:42.721Z,14.27
2018-04-19T19:56:10.306Z,14.50
2018-04-19T19:58:37.861Z,14.74
2018-04-19T20:01:05.804Z,15.01
2018-04-19T20:03:33.437Z,15.03
2018-04-19T20:06:01.021Z,15.10
2018-04-19T20:08:28.592Z,14.56
2018-04-19T20:10:56.912Z,14.17
2018-04-19T20:13:24.441Z,14.09
2018-04-19T20:15:52.137Z,13.95
2018-04-19T20:18:19.806Z,13.71
2018-04-19T20:20:47.332Z,13.45
2018-04-19T20:23:15.041Z,13.16
2018-04-19T20:25:42.634Z,13.03
2018-04-19T20:28:10.162Z,13.11
2018-04-19T20:30:37.874Z,12.98
2018-04-19T20:33:05.477Z,12.94
2018-04-19T20:35:33.263Z,12.98
2018-04-19T20:38:01.068Z,12.67
2018-04-19T20:40:28.842Z,12.63
2018-04-19T20:42:56.623Z,12.58
2018-04-19T20:45:24.162Z,12.65
2018-04-19T20:47:51.812Z,12.42
2018-04-19T20:50:19.630Z,12.48
2018-04-19T20:52:47.545Z,12.47
2018-04-19T20:55:15.262Z,12.26
2018-04-19T20:57:42.908Z,12.17
2018-04-19T21:00:10.661Z,12.00
2018-04-19T21:02:38.661Z,11.93
2018-04-19T21:05:06.430Z,11.95
2018-04-19T21:07:34.236Z,11.86
2018-04-19T21:10:01.997Z,11.75
2018-04-19T21:12:29.676Z,11.57
2018-04-19T21:14:57.261Z,11.57
2018-04-19T21:17:24.902Z,11.63
2018-04-19T21:19:52.502Z,11.67
2018-04-19T21:22:20.295Z,11.46
2018-04-19T21:24:48.156Z,11.08
2018-04-19T21:27:15.682Z,11.23
2018-04-19T21:29:43.341Z,11.19
2018-04-19T21:32:10.945Z,11.38
2018-04-19T21:34:38.607Z,11.30
2018-04-19T21:37:06.130Z,11.25
2018-04-19T21:39:33.837Z,11.61
2018-04-19T21:42:01.614Z,11.37
2018-04-19T21:44:29.517Z,11.29
2018-04-19T21:46:57.036Z,11.21
2018-04-19T21:49:25.012Z,11.22
2018-04-19T21:52:00.552Z,10.96
2018-04-19T21:54:28.359Z,10.91
2018-04-19T21:56:55.887Z,10.97
2018-04-19T21:59:24.159Z,10.70
2018-04-19T22:01:51.682Z,10.88
2018-04-19T22:04:19.415Z,10.89
2018-04-19T22:06:47.236Z,10.69
2018-04-19T22:09:14.792Z,10.86
2018-04-19T22:11:42.821Z,10.67
2018-04-19T22:14:10.440Z,11.05
2018-04-19T22:16:38.283Z,11.06
2018-04-19T22:19:05.919Z,10.87
2018-04-19T22:21:33.617Z,10.71
2018-04-19T22:24:01.440Z,11.17
2018-04-19T22:26:28.972Z,10.90
2018-04-19T22:28:56.628Z,10.05
2018-04-19T22:31:24.153Z,10.33
2018-04-19T22:33:51.967Z,10.20
2018-04-19T22:36:19.523Z,10.20
2018-04-19T22:38:47.143Z,10.39
2018-04-19T22:41:14.801Z,10.01
2018-04-19T22:43:42.622Z,10.42
2018-04-19T22:46:10.226Z,10.18
2018-04-19T22:48:37.967Z,10.24
2018-04-19T22:51:05.701Z,10.32
2018-04-19T22:53:33.249Z,9.89
2018-04-19T22:56:00.947Z,10.21
2018-04-19T22:58:28.746Z,9.83
2018-04-19T23:00:57.102Z,9.63
2018-04-19T23:03:24.816Z,9.91
2018-04-19T23:05:52.553Z,9.45
2018-04-19T23:08:20.128Z,9.57
2018-04-19T23:10:47.762Z,9.73
2018-04-19T23:13:15.281Z,9.26
2018-04-19T23:15:42.862Z,9.93
2018-04-19T23:18:10.546Z,9.91
2018-04-19T23:20:38.464Z,9.28
2018-04-19T23:23:06.112Z,9.42
2018-04-19T23:25:33.855Z,9.62
2018-04-19T23:28:01.500Z,8.96
2018-04-19T23:30:29.069Z,9.23
2018-04-19T23:32:56.835Z,9.54
2018-04-19T23:35:24.361Z,9.50
2018-04-19T23:37:51.940Z,9.01
2018-04-19T23:40:19.611Z,9.50
2018-04-19T23:42:47.133Z,9.64
2018-04-19T23:45:15.091Z,9.56
2018-04-19T23:47:42.623Z,9.76
2018-04-19T23:50:10.176Z,9.36
2018-04-19T23:52:37.930Z,8.83
2018-04-19T23:55:06.174Z,9.02
2018-04-19T23:57:33.686Z,9.34
